createdAt,value
2023-03-03T00:01:59.905Z,0.28
2023-03-03T00:04:28.580Z,0.32
2023-03-03T00:06:57.259Z,0.33
2023-03-03T00:09:25.998Z,0.36
2023-03-03T00:11:59.058Z,0.38
2023-03-03T00:14:32.223Z,0.41
2023-03-03T00:17:19.397Z,0.42
2023-03-03T00:19:48.926Z,0.43
2023-03-03T00:22:30.157Z,0.40
2023-03-03T00:25:03.653Z,0.46
2023-03-03T00:27:36.886Z,0.53
2023-03-03T00:30:19.640Z,0.56
2023-03-03T00:32:50.536Z,0.59
2023-03-03T00:35:27.040Z,0.47
2023-03-03T00:38:01.777Z,0.53
2023-03-03T00:40:37.611Z,0.59
2023-03-03T00:43:21.402Z,0.66
2023-03-03T00:45:52.500Z,0.71
2023-03-03T00:48:28.751Z,0.74
2023-03-03T00:50:59.903Z,0.70
2023-03-03T00:53:30.856Z,0.78
2023-03-03T00:56:00.078Z,0.83
2023-03-03T00:58:29.684Z,0.75
2023-03-03T01:00:58.985Z,0.72
2023-03-03T01:03:39.208Z,0.80
2023-03-03T01:06:08.176Z,0.79
2023-03-03T01:08:37.051Z,0.83
2023-03-03T01:11:10.745Z,0.87
2023-03-03T01:13:42.887Z,0.71
2023-03-03T01:16:12.184Z,0.82
2023-03-03T01:18:42.910Z,0.77
2023-03-03T01:21:12.891Z,0.73
2023-03-03T01:23:41.654Z,0.75
2023-03-03T01:26:10.704Z,0.74
2023-03-03T01:28:41.738Z,0.77
2023-03-03T01:31:10.676Z,0.74
2023-03-03T01:33:39.611Z,0.63
2023-03-03T01:36:10.526Z,0.69
2023-03-03T01:38:40.459Z,0.67
2023-03-03T01:41:09.394Z,0.74
2023-03-03T01:43:46.596Z,0.80
2023-03-03T01:46:49.643Z,0.84
2023-03-03T01:49:24.081Z,0.77
2023-03-03T01:51:59.689Z,0.77
2023-03-03T01:54:35.542Z,0.72
2023-03-03T01:57:11.418Z,0.71
2023-03-03T01:59:47.866Z,0.61
2023-03-03T02:02:17.156Z,0.53
2023-03-03T02:04:46.049Z,0.55
2023-03-03T02:07:18.615Z,0.50
2023-03-03T02:09:58.136Z,0.51
2023-03-03T02:12:35.195Z,0.54
2023-03-03T02:15:13.049Z,0.44
2023-03-03T02:17:42.136Z,0.45
2023-03-03T02:20:21.193Z,0.56
2023-03-03T02:22:58.542Z,0.53
2023-03-03T02:25:42.835Z,0.40
2023-03-03T02:28:13.608Z,0.38
2023-03-03T02:30:42.452Z,0.41
2023-03-03T02:33:11.506Z,0.51
2023-03-03T02:35:43.082Z,0.44
2023-03-03T02:38:27.009Z,0.45
2023-03-03T02:41:11.087Z,0.34
2023-03-03T02:43:49.825Z,0.36
2023-03-03T02:46:19.257Z,0.50
2023-03-03T02:48:48.017Z,0.45
2023-03-03T02:51:16.898Z,0.46
2023-03-03T02:53:45.573Z,0.50
2023-03-03T02:56:14.491Z,0.52
2023-03-03T02:58:44.787Z,0.35
2023-03-03T03:01:14.229Z,0.41
2023-03-03T03:03:44.218Z,0.41
2023-03-03T03:06:13.158Z,0.42
2023-03-03T03:08:42.856Z,0.34
2023-03-03T03:11:11.589Z,0.33
2023-03-03T03:13:41.149Z,0.34
2023-03-03T03:16:11.556Z,0.32
2023-03-03T03:18:41.674Z,0.29
2023-03-03T03:21:12.869Z,0.27
2023-03-03T03:23:43.811Z,0.34
2023-03-03T03:26:14.431Z,0.41
2023-03-03T03:28:43.655Z,0.37
2023-03-03T03:31:15.613Z,0.38
2023-03-03T03:33:44.435Z,0.31
2023-03-03T03:36:14.964Z,0.32
2023-03-03T03:38:44.132Z,0.29
2023-03-03T03:41:14.512Z,0.22
2023-03-03T03:43:43.177Z,0.18
2023-03-03T03:46:11.964Z,0.23
2023-03-03T03:48:42.118Z,0.31
2023-03-03T03:51:13.812Z,0.35
2023-03-03T03:53:43.573Z,0.47
2023-03-03T03:56:12.380Z,0.45
2023-03-03T03:58:43.566Z,0.45
2023-03-03T04:01:14.706Z,0.30
2023-03-03T04:03:50.256Z,0.24
2023-03-03T04:06:22.482Z,0.25
2023-03-03T04:08:52.237Z,0.10
2023-03-03T04:11:24.067Z,0.11
2023-03-03T04:13:52.894Z,0.23
2023-03-03T04:16:21.576Z,0.30
2023-03-03T04:18:52.058Z,0.36
2023-03-03T04:21:22.648Z,0.47
2023-03-03T04:23:53.984Z,0.38
2023-03-03T04:26:23.027Z,0.42
2023-03-03T04:28:52.990Z,0.42
2023-03-03T04:31:21.913Z,0.46
2023-03-03T04:33:52.485Z,0.46
2023-03-03T04:36:22.274Z,0.56
2023-03-03T04:38:51.794Z,0.48
2023-03-03T04:41:21.028Z,0.45
2023-03-03T04:43:50.604Z,0.42
2023-03-03T04:46:19.686Z,0.47
2023-03-03T04:48:48.398Z,0.57
2023-03-03T04:51:20.965Z,0.46
2023-03-03T04:53:49.852Z,0.49
2023-03-03T04:56:18.635Z,0.41
2023-03-03T04:58:47.451Z,0.52
2023-03-03T05:01:16.551Z,0.60
2023-03-03T05:03:45.391Z,0.60
2023-03-03T05:06:14.234Z,0.66
2023-03-03T05:09:21.355Z,0.53
2023-03-03T05:11:53.728Z,0.62
2023-03-03T05:14:23.060Z,0.57
2023-03-03T05:16:52.291Z,0.47
2023-03-03T05:19:21.075Z,0.51
2023-03-03T05:21:49.964Z,0.52
2023-03-03T05:24:21.614Z,0.61
2023-03-03T05:26:50.641Z,0.61
2023-03-03T05:29:19.505Z,0.64
2023-03-03T05:31:48.387Z,0.63
2023-03-03T05:34:18.485Z,0.59
2023-03-03T05:36:49.685Z,0.59
2023-03-03T05:39:20.265Z,0.53
2023-03-03T05:41:50.581Z,0.47
2023-03-03T05:44:22.393Z,0.46
2023-03-03T05:46:51.648Z,0.36
2023-03-03T05:49:20.304Z,0.37
2023-03-03T05:51:49.027Z,0.25
2023-03-03T05:54:19.313Z,0.23
2023-03-03T05:56:48.383Z,0.42
2023-03-03T05:59:17.276Z,0.53
2023-03-03T06:01:46.078Z,0.61
2023-03-03T06:04:14.850Z,0.65
2023-03-03T06:06:43.660Z,0.65
2023-03-03T06:09:12.689Z,0.69
2023-03-03T06:11:43.048Z,0.67
2023-03-03T06:14:11.751Z,0.72
2023-03-03T06:16:40.768Z,0.65
2023-03-03T06:19:09.496Z,0.50
2023-03-03T06:21:38.179Z,0.56
2023-03-03T06:24:07.942Z,0.65
2023-03-03T06:26:36.778Z,0.59
2023-03-03T06:29:06.830Z,0.62
2023-03-03T06:31:35.831Z,0.71
2023-03-03T06:34:04.617Z,0.71
2023-03-03T06:36:33.403Z,0.50
2023-03-03T06:39:02.269Z,0.54
2023-03-03T06:41:30.921Z,0.54
2023-03-03T06:44:00.335Z,0.60
2023-03-03T06:46:30.465Z,0.57
2023-03-03T06:48:59.141Z,0.64
2023-03-03T06:51:35.124Z,0.66
2023-03-03T06:54:12.399Z,0.70
2023-03-03T06:56:42.928Z,0.78
2023-03-03T06:59:15.931Z,0.76
2023-03-03T07:01:48.117Z,0.73
2023-03-03T07:04:28.814Z,0.66
2023-03-03T07:06:58.516Z,0.78
2023-03-03T07:09:30.838Z,0.74
2023-03-03T07:12:08.027Z,0.79
2023-03-03T07:14:43.436Z,0.83
2023-03-03T07:17:20.203Z,0.81
2023-03-03T07:19:49.955Z,0.77
2023-03-03T07:22:20.905Z,0.77
2023-03-03T07:24:53.724Z,0.79
2023-03-03T07:27:27.707Z,0.72
2023-03-03T07:30:18.693Z,0.77
2023-03-03T07:32:49.292Z,0.86
2023-03-03T07:35:42.845Z,0.87
2023-03-03T07:38:32.606Z,0.89
2023-03-03T07:41:04.701Z,0.90
2023-03-03T07:43:38.148Z,0.91
2023-03-03T07:46:29.226Z,1.01
2023-03-03T07:49:01.555Z,1.08
2023-03-03T07:51:41.987Z,1.10
2023-03-03T07:54:37.416Z,1.01
2023-03-03T07:57:23.778Z,0.96
2023-03-03T07:59:56.038Z,1.07
2023-03-03T08:02:46.715Z,1.03
2023-03-03T08:05:36.399Z,1.02
2023-03-03T08:08:31.312Z,0.94
2023-03-03T08:11:01.492Z,1.02
2023-03-03T08:13:39.197Z,1.02
2023-03-03T08:16:31.727Z,0.99
2023-03-03T08:19:06.285Z,0.92
2023-03-03T08:21:37.891Z,1.01
2023-03-03T08:24:07.613Z,1.12
2023-03-03T08:26:36.707Z,1.08
2023-03-03T08:29:05.594Z,1.06
2023-03-03T08:31:41.179Z,0.96
2023-03-03T08:34:10.546Z,0.98
2023-03-03T08:36:40.667Z,1.00
2023-03-03T08:39:09.501Z,1.03
2023-03-03T08:41:39.191Z,1.06
2023-03-03T08:44:07.853Z,1.12
2023-03-03T08:46:36.844Z,1.11
2023-03-03T08:49:06.067Z,1.16
2023-03-03T08:51:35.362Z,1.14
2023-03-03T08:54:05.642Z,1.14
2023-03-03T08:56:34.264Z,1.29
2023-03-03T08:59:03.463Z,1.27
2023-03-03T09:01:32.602Z,1.30
2023-03-03T09:04:01.547Z,1.24
2023-03-03T09:06:30.344Z,1.29
2023-03-03T09:08:59.252Z,1.37
2023-03-03T09:11:30.988Z,1.40
2023-03-03T09:14:08.910Z,1.49
2023-03-03T09:16:43.124Z,1.56
2023-03-03T09:19:24.968Z,1.59
2023-03-03T09:21:56.733Z,1.39
2023-03-03T09:24:29.507Z,1.32
2023-03-03T09:27:00.309Z,1.32
2023-03-03T09:29:31.110Z,1.44
2023-03-03T09:32:02.391Z,1.45
2023-03-03T09:34:42.476Z,1.48
2023-03-03T09:37:24.507Z,1.53
2023-03-03T09:39:55.790Z,1.55
2023-03-03T09:42:52.466Z,1.60
2023-03-03T09:45:51.129Z,1.57
2023-03-03T09:48:40.119Z,1.70
2023-03-03T09:51:32.256Z,1.78
2023-03-03T09:54:19.652Z,1.74
2023-03-03T09:56:55.969Z,1.75
2023-03-03T09:59:45.589Z,1.69
2023-03-03T10:02:39.812Z,1.65
2023-03-03T10:05:35.915Z,1.70
2023-03-03T10:08:31.747Z,1.67
2023-03-03T10:11:13.210Z,1.68
2023-03-03T10:14:11.871Z,1.63
2023-03-03T10:17:07.437Z,1.61
2023-03-03T10:19:41.308Z,1.55
2023-03-03T10:22:25.784Z,1.56
2023-03-03T10:25:13.490Z,1.48
2023-03-03T10:28:03.564Z,1.41
2023-03-03T10:31:04.816Z,1.43
2023-03-03T10:33:51.200Z,1.56
2023-03-03T10:36:55.236Z,1.64
2023-03-03T10:39:46.716Z,1.67
2023-03-03T10:42:51.552Z,1.70
2023-03-03T10:46:01.224Z,1.79
2023-03-03T10:48:52.308Z,1.74
2023-03-03T10:51:33.228Z,1.69
2023-03-03T10:54:30.499Z,1.72
2023-03-03T10:57:12.741Z,1.85
2023-03-03T11:00:01.004Z,1.98
2023-03-03T11:02:43.573Z,1.94
2023-03-03T11:05:27.558Z,1.99
2023-03-03T11:08:03.269Z,1.98
2023-03-03T11:10:56.160Z,2.04
2023-03-03T11:13:39.225Z,2.01
2023-03-03T11:16:42.706Z,1.96
2023-03-03T11:19:41.760Z,2.06
2023-03-03T11:22:30.521Z,2.01
2023-03-03T11:25:17.227Z,2.10
2023-03-03T11:28:23.975Z,2.08
2023-03-03T11:31:19.714Z,2.09
2023-03-03T11:34:01.753Z,2.02
2023-03-03T11:36:38.509Z,2.03
2023-03-03T11:39:14.978Z,2.06
2023-03-03T11:42:05.381Z,1.96
2023-03-03T11:44:40.083Z,1.99
2023-03-03T11:47:21.356Z,2.05
2023-03-03T11:49:58.816Z,1.93
2023-03-03T11:52:40.572Z,1.97
2023-03-03T11:55:23.616Z,2.05
2023-03-03T11:58:01.121Z,1.93
2023-03-03T12:00:39.190Z,1.95
2023-03-03T12:03:22.178Z,1.94
2023-03-03T12:05:58.782Z,1.95
2023-03-03T12:09:07.780Z,1.98
2023-03-03T12:11:49.385Z,1.98
2023-03-03T12:14:54.042Z,1.94
2023-03-03T12:17:45.373Z,1.87
2023-03-03T12:20:26.799Z,1.93
2023-03-03T12:23:16.816Z,1.92
2023-03-03T12:25:49.046Z,2.01
2023-03-03T12:28:25.361Z,2.00
2023-03-03T12:31:24.570Z,1.95
2023-03-03T12:34:03.309Z,1.90
2023-03-03T12:37:05.393Z,1.90
2023-03-03T12:39:50.193Z,1.95
2023-03-03T12:42:40.883Z,1.95
2023-03-03T12:45:34.687Z,1.94
2023-03-03T12:48:15.623Z,1.85
2023-03-03T12:51:00.902Z,1.86
2023-03-03T12:54:11.045Z,1.88
2023-03-03T12:56:49.099Z,1.97
2023-03-03T12:59:29.957Z,2.01
2023-03-03T13:02:35.371Z,2.07
2023-03-03T13:05:21.910Z,2.12
2023-03-03T13:08:11.452Z,2.14
2023-03-03T13:10:49.408Z,2.14
2023-03-03T13:13:26.727Z,2.17
2023-03-03T13:16:06.458Z,2.24
2023-03-03T13:18:55.344Z,2.24
2023-03-03T13:21:36.091Z,2.22
2023-03-03T13:24:20.458Z,2.24
2023-03-03T13:26:56.531Z,2.18
2023-03-03T13:29:31.519Z,2.24
2023-03-03T13:32:13.883Z,2.21
2023-03-03T13:34:55.064Z,2.05
2023-03-03T13:37:30.326Z,2.07
2023-03-03T13:40:08.690Z,2.17
2023-03-03T13:42:44.902Z,2.22
2023-03-03T13:45:23.356Z,2.14
2023-03-03T13:48:08.904Z,2.21
2023-03-03T13:50:50.229Z,2.13
2023-03-03T13:53:45.926Z,1.99
2023-03-03T13:57:00.091Z,1.84
2023-03-03T13:59:43.427Z,1.84
2023-03-03T14:02:43.873Z,1.95
2023-03-03T14:05:18.749Z,2.08
2023-03-03T14:08:02.047Z,2.11
2023-03-03T14:10:35.517Z,2.10
2023-03-03T14:17:16.125Z,1.93
2023-03-03T14:19:49.418Z,1.80
2023-03-03T14:22:26.090Z,1.81
2023-03-03T14:25:09.462Z,1.78
2023-03-03T14:27:42.819Z,1.87
2023-03-03T14:30:35.602Z,1.93
2023-03-03T14:33:21.088Z,2.10
2023-03-03T14:36:13.830Z,2.26
2023-03-03T14:38:49.346Z,2.29
2023-03-03T14:41:36.184Z,2.27
2023-03-03T14:44:28.069Z,2.19
2023-03-03T14:47:25.129Z,2.19
2023-03-03T14:50:00.636Z,2.15
2023-03-03T14:52:31.946Z,2.22
2023-03-03T14:55:05.428Z,2.19
2023-03-03T14:57:47.766Z,2.22
2023-03-03T15:01:36.887Z,2.13
2023-03-03T15:04:28.468Z,2.21
2023-03-03T15:06:59.077Z,2.12
2023-03-03T15:09:38.911Z,2.11
2023-03-03T15:12:23.656Z,2.01
2023-03-03T15:15:11.345Z,1.90
2023-03-03T15:17:47.149Z,1.80
2023-03-03T15:20:33.799Z,1.84
2023-03-03T15:23:29.858Z,1.93
2023-03-03T15:26:11.001Z,1.96
2023-03-03T15:29:07.839Z,1.99
2023-03-03T15:31:56.508Z,1.97
2023-03-03T15:34:45.286Z,1.86
2023-03-03T15:37:39.339Z,1.91
2023-03-03T15:40:26.412Z,1.84
2023-03-03T15:43:10.684Z,1.83
2023-03-03T15:45:51.266Z,1.75
2023-03-03T15:48:46.617Z,1.78
2023-03-03T15:51:32.567Z,1.72
2023-03-03T15:54:30.463Z,1.61
2023-03-03T15:57:06.117Z,1.68
2023-03-03T16:00:26.852Z,1.74
2023-03-03T16:03:02.542Z,1.53
2023-03-03T16:06:04.009Z,1.47
2023-03-03T16:08:50.973Z,1.63
2023-03-03T16:11:29.626Z,1.69
2023-03-03T16:14:23.098Z,1.65
2023-03-03T16:17:01.741Z,1.49
2023-03-03T16:19:44.715Z,1.44
2023-03-03T16:22:42.552Z,1.46
2023-03-03T16:25:35.556Z,1.43
2023-03-03T16:28:17.154Z,1.56
2023-03-03T16:30:57.433Z,1.61
2023-03-03T16:33:37.343Z,1.59
2023-03-03T16:36:25.394Z,1.48
2023-03-03T16:39:07.209Z,1.38
2023-03-03T16:41:48.571Z,1.47
2023-03-03T16:44:35.562Z,1.54
2023-03-03T16:47:24.173Z,1.38
2023-03-03T16:50:08.285Z,1.42
2023-03-03T16:52:46.127Z,1.45
2023-03-03T16:55:21.581Z,1.59
2023-03-03T16:58:05.852Z,1.63
2023-03-03T17:00:45.631Z,1.64
2023-03-03T17:03:57.811Z,1.61
2023-03-03T17:06:41.146Z,1.60
2023-03-03T17:09:43.471Z,1.74
2023-03-03T17:12:41.829Z,1.74
2023-03-03T17:15:39.775Z,1.49
2023-03-03T17:18:18.365Z,1.55
2023-03-03T17:20:50.810Z,1.59
2023-03-03T17:23:57.446Z,1.43
2023-03-03T17:27:04.940Z,1.49
2023-03-03T17:30:03.701Z,1.48
2023-03-03T17:33:09.243Z,1.54
2023-03-03T17:35:59.020Z,1.36
2023-03-03T17:38:43.073Z,1.49
2023-03-03T17:41:22.860Z,1.48
2023-03-03T17:44:01.892Z,1.42
2023-03-03T17:46:40.976Z,1.55
2023-03-03T17:49:45.090Z,1.63
2023-03-03T17:52:48.814Z,1.41
2023-03-03T17:55:50.804Z,1.45
2023-03-03T17:59:09.320Z,1.53
2023-03-03T18:02:03.872Z,1.41
2023-03-03T18:05:12.425Z,1.45
2023-03-03T18:08:02.243Z,1.55
2023-03-03T18:11:15.396Z,1.63
2023-03-03T18:14:22.801Z,1.66
2023-03-03T18:17:33.564Z,1.64
2023-03-03T18:20:43.074Z,1.72
2023-03-03T18:23:41.690Z,1.72
2023-03-03T18:26:41.547Z,1.57
2023-03-03T18:29:29.618Z,1.66
2023-03-03T18:32:23.151Z,1.71
2023-03-03T18:35:26.033Z,1.81
2023-03-03T18:37:56.631Z,1.84
2023-03-03T18:40:35.840Z,1.78
2023-03-03T18:43:58.413Z,1.74
2023-03-03T18:46:52.773Z,1.74
2023-03-03T18:50:05.285Z,1.79
2023-03-03T18:52:37.031Z,1.76
2023-03-03T18:55:28.750Z,1.72
2023-03-03T18:58:38.666Z,1.76
2023-03-03T19:01:44.489Z,1.77
2023-03-03T19:04:36.109Z,1.85
2023-03-03T19:07:36.052Z,1.93
2023-03-03T19:10:48.399Z,1.96
2023-03-03T19:13:48.004Z,1.97
2023-03-03T19:16:38.933Z,1.91
2023-03-03T19:19:17.615Z,1.96
2023-03-03T19:21:53.582Z,2.00
2023-03-03T19:24:35.004Z,1.83
2023-03-03T19:27:27.535Z,1.90
2023-03-03T19:30:36.427Z,1.92
2023-03-03T19:33:54.556Z,1.98
2023-03-03T19:37:12.853Z,1.98
2023-03-03T19:40:05.157Z,1.92
2023-03-03T19:42:49.658Z,1.83
2023-03-03T19:45:33.878Z,1.80
2023-03-03T19:48:15.452Z,1.80
2023-03-03T19:50:55.592Z,1.88
2023-03-03T19:53:42.157Z,1.94
2023-03-03T19:56:34.200Z,1.95
2023-03-03T19:59:31.835Z,1.81
2023-03-03T20:02:28.187Z,1.86
2023-03-03T20:05:17.214Z,1.93
2023-03-03T20:07:58.954Z,1.92
2023-03-03T20:10:50.825Z,1.98
2023-03-03T20:13:54.471Z,2.04
2023-03-03T20:16:41.223Z,2.09
2023-03-03T20:19:25.764Z,2.08
2023-03-03T20:22:10.416Z,2.04
2023-03-03T20:25:05.942Z,2.09
2023-03-03T20:27:56.497Z,2.13
2023-03-03T20:30:48.674Z,2.03
2023-03-03T20:33:39.948Z,2.04
2023-03-03T20:36:21.860Z,2.08
2023-03-03T20:39:08.003Z,2.12
2023-03-03T20:42:06.266Z,2.11
2023-03-03T20:45:09.209Z,2.04
2023-03-03T20:47:57.719Z,2.11
2023-03-03T20:50:38.369Z,2.15
2023-03-03T20:53:38.390Z,2.17
2023-03-03T20:56:17.905Z,2.11
2023-03-03T20:59:13.192Z,2.13
2023-03-03T21:01:59.708Z,2.03
2023-03-03T21:04:32.072Z,1.86
2023-03-03T21:07:06.142Z,1.81
2023-03-03T21:09:37.727Z,1.94
2023-03-03T21:12:27.534Z,1.96
2023-03-03T21:15:02.446Z,2.03
2023-03-03T21:17:34.055Z,2.08
2023-03-03T21:20:29.700Z,2.09
2023-03-03T21:23:00.968Z,2.11
2023-03-03T21:25:52.220Z,1.99
2023-03-03T21:28:25.020Z,1.99
2023-03-03T21:31:13.222Z,1.92
2023-03-03T21:33:50.201Z,1.98
2023-03-03T21:36:21.265Z,1.99
2023-03-03T21:38:51.023Z,1.90
2023-03-03T21:41:21.628Z,1.91
2023-03-03T21:43:53.119Z,1.95
2023-03-03T21:46:25.061Z,1.98
2023-03-03T21:49:12.376Z,2.02
2023-03-03T21:51:41.097Z,1.98
2023-03-03T21:54:09.691Z,1.87
2023-03-03T21:56:41.785Z,1.77
2023-03-03T21:59:10.626Z,1.82
2023-03-03T22:01:39.345Z,1.87
2023-03-03T22:04:09.995Z,1.94
2023-03-03T22:06:38.713Z,1.99
2023-03-03T22:09:07.955Z,1.99
2023-03-03T22:11:36.703Z,1.99
2023-03-03T22:14:05.572Z,1.92
2023-03-03T22:16:34.596Z,1.97
2023-03-03T22:19:03.460Z,1.91
2023-03-03T22:21:33.693Z,1.94
2023-03-03T22:24:02.446Z,1.80
2023-03-03T22:26:31.462Z,1.65
2023-03-03T22:29:00.157Z,1.60
2023-03-03T22:31:29.216Z,1.55
2023-03-03T22:34:02.613Z,1.61
2023-03-03T22:36:32.810Z,1.66
2023-03-03T22:39:02.070Z,1.73
2023-03-03T22:41:30.777Z,1.81
2023-03-03T22:43:59.496Z,1.76
2023-03-03T22:46:28.232Z,1.76
2023-03-03T22:48:56.912Z,1.71
2023-03-03T22:51:26.252Z,1.71
2023-03-03T22:53:56.379Z,1.84
2023-03-03T22:56:25.010Z,1.83
2023-03-03T22:58:53.825Z,1.84
2023-03-03T23:01:22.537Z,1.81
2023-03-03T23:03:51.331Z,1.78
2023-03-03T23:06:20.066Z,1.83
2023-03-03T23:08:48.809Z,1.77
2023-03-03T23:11:18.969Z,1.81
2023-03-03T23:13:47.751Z,1.81
2023-03-03T23:16:16.568Z,1.81
2023-03-03T23:18:45.250Z,1.81
2023-03-03T23:21:13.974Z,1.78
2023-03-03T23:23:42.701Z,1.67
2023-03-03T23:26:11.398Z,1.64
2023-03-03T23:28:41.565Z,1.74
2023-03-03T23:31:10.407Z,1.76
2023-03-03T23:33:39.057Z,1.83
2023-03-03T23:36:09.000Z,1.81
2023-03-03T23:38:37.673Z,1.79
2023-03-03T23:41:06.722Z,1.76
2023-03-03T23:43:35.460Z,1.74
2023-03-03T23:46:05.912Z,1.77
2023-03-03T23:48:35.101Z,1.74
2023-03-03T23:51:03.832Z,1.74
2023-03-03T23:53:32.476Z,1.77
2023-03-03T23:56:01.127Z,1.82
2023-03-03T23:58:29.759Z,1.72
